Time;durP1;ratioP1;P1;durP2;ratioP2;P2;SDS_P1;SDS_P2;PMS_P1;PMS_P2;Temp;Humidity;BMP_temperature;BMP_pressure;BME280_temperature;BME280_humidity;BME280_pressure;Samples;Min_cycle;Max_cycle;Signal;HPM_P1;HPM_P2
2021/08/28 00:00:17;;;;;;;7.63;4.57;;;13.30;99.90;;;;;;2603897;46;20087;31
2021/08/28 00:02:51;;;;;;;8.07;4.33;;;13.30;99.90;;;;;;2603294;46;20097;31
2021/08/28 00:05:23;;;;;;;7.68;4.10;;;13.30;99.90;;;;;;2603858;46;19989;31
2021/08/28 00:07:56;;;;;;;8.15;4.50;;;13.20;99.90;;;;;;2603494;46;20038;31
2021/08/28 00:10:28;;;;;;;8.82;4.28;;;13.20;99.90;;;;;;2602965;46;20128;31
2021/08/28 00:12:59;;;;;;;7.45;3.95;;;13.10;99.90;;;;;;2603333;46;20038;31
2021/08/28 00:15:31;;;;;;;8.30;4.87;;;13.10;99.90;;;;;;2603296;46;20038;31
2021/08/28 00:18:03;;;;;;;6.80;4.60;;;13.10;99.90;;;;;;2603473;54;20877;31
2021/08/28 00:20:35;;;;;;;6.32;4.10;;;13.10;99.90;;;;;;2603745;46;20026;31
2021/08/28 00:23:07;;;;;;;5.95;3.65;;;13.10;99.90;;;;;;2603737;46;20109;31
2021/08/28 00:25:38;;;;;;;8.77;3.65;;;13.10;99.90;;;;;;2603899;46;20042;31
2021/08/28 00:28:18;;;;;;;6.95;3.80;;;13.00;99.90;;;;;;2603764;46;20034;31
2021/08/28 00:30:57;;;;;;;5.65;3.80;;;13.00;99.90;;;;;;2603813;46;20109;31
2021/08/28 00:33:32;;;;;;;6.07;3.83;;;12.90;99.90;;;;;;2603766;46;20100;31
2021/08/28 00:36:04;;;;;;;8.65;3.88;;;13.00;99.90;;;;;;2603787;46;20826;31
2021/08/28 00:38:36;;;;;;;5.95;4.18;;;12.90;99.90;;;;;;2603863;46;20035;31
2021/08/28 00:41:07;;;;;;;6.60;3.45;;;12.90;99.90;;;;;;2603805;46;20030;31
2021/08/28 00:43:39;;;;;;;7.50;4.32;;;12.80;99.90;;;;;;2603697;47;20081;31
2021/08/28 00:46:11;;;;;;;4.95;3.20;;;12.80;99.90;;;;;;2603222;54;20832;31
2021/08/28 00:48:42;;;;;;;6.43;4.50;;;12.80;99.90;;;;;;2603721;46;20023;31
2021/08/28 00:51:14;;;;;;;4.60;2.93;;;12.80;99.90;;;;;;2602632;54;20022;31
2021/08/28 00:53:48;;;;;;;4.70;3.30;;;12.80;99.90;;;;;;2603588;46;19971;31
2021/08/28 00:56:21;;;;;;;7.00;4.35;;;12.80;99.90;;;;;;2602419;54;20032;31
2021/08/28 00:58:55;;;;;;;6.75;3.78;;;12.70;99.90;;;;;;2602671;54;20034;31
2021/08/28 01:01:31;;;;;;;6.15;4.00;;;12.70;99.90;;;;;;2603153;47;20041;31
2021/08/28 01:04:01;;;;;;;;;;;12.60;99.90;;;;;;2702532;39;21090;31
2021/08/28 01:06:43;;;;;;;5.40;3.55;;;12.50;99.90;;;;;;2603792;47;20827;31
2021/08/28 01:09:40;;;;;;;10.25;5.05;;;12.50;99.90;;;;;;2603695;47;20038;31
2021/08/28 01:12:29;;;;;;;8.15;4.60;;;12.50;99.90;;;;;;2603868;47;20882;31
2021/08/28 01:15:09;;;;;;;6.32;4.07;;;12.50;99.90;;;;;;2603580;47;20864;31
2021/08/28 01:17:47;;;;;;;9.40;4.60;;;12.50;99.90;;;;;;2603119;54;20085;31
2021/08/28 01:20:39;;;;;;;7.43;4.60;;;12.40;99.90;;;;;;2603332;47;20069;31
2021/08/28 01:23:35;;;;;;;7.03;4.27;;;12.40;99.90;;;;;;2603506;47;20057;31
2021/08/28 01:26:26;;;;;;;7.75;4.75;;;12.40;99.90;;;;;;2603100;54;19941;31
2021/08/28 01:29:17;;;;;;;7.55;5.15;;;12.30;99.90;;;;;;2603121;54;20066;31
2021/08/28 01:31:50;;;;;;;8.77;4.83;;;12.30;99.90;;;;;;2603456;47;20031;31
2021/08/28 01:34:22;;;;;;;7.75;5.72;;;12.30;99.90;;;;;;2603492;47;20030;31
2021/08/28 01:36:54;;;;;;;7.97;5.22;;;12.20;99.90;;;;;;2602988;54;20046;31
2021/08/28 01:40:04;;;;;;;10.15;4.72;;;12.20;99.90;;;;;;2603546;47;20026;31
2021/08/28 01:42:44;;;;;;;7.65;5.22;;;12.20;99.90;;;;;;2603416;47;20904;31
2021/08/28 01:45:20;;;;;;;8.30;5.50;;;12.20;99.90;;;;;;2603464;47;20863;31
